sensor_id;sensor_type;location;lat;lon;timestamp;pressure;altitude;pressure_sealevel;temperature;humidity
71948;BME280;63257;55.082;38.772;2023-10-13T00:02:11;98586.13;;;9.31;96.28
71948;BME280;63257;55.082;38.772;2023-10-13T00:04:39;98587.88;;;9.31;95.66
71948;BME280;63257;55.082;38.772;2023-10-13T00:07:05;98581.91;;;9.29;95.74
71948;BME280;63257;55.082;38.772;2023-10-13T00:09:35;98591.06;;;9.23;95.77
71948;BME280;63257;55.082;38.772;2023-10-13T00:12:08;98573.28;;;9.14;95.86
71948;BME280;63257;55.082;38.772;2023-10-13T00:14:48;98577.69;;;9.13;95.41
71948;BME280;63257;55.082;38.772;2023-10-13T00:17:16;98598.97;;;9.23;94.78
71948;BME280;63257;55.082;38.772;2023-10-13T00:19:45;98593.72;;;9.23;94.03
71948;BME280;63257;55.082;38.772;2023-10-13T00:22:14;98597.91;;;9.26;93.89
71948;BME280;63257;55.082;38.772;2023-10-13T00:24:45;98587.81;;;9.20;93.26
71948;BME280;63257;55.082;38.772;2023-10-13T00:27:13;98580.03;;;9.18;93.12
71948;BME280;63257;55.082;38.772;2023-10-13T00:30:07;98597.81;;;9.27;92.98
71948;BME280;63257;55.082;38.772;2023-10-13T00:32:53;98586.34;;;9.15;92.90
71948;BME280;63257;55.082;38.772;2023-10-13T00:35:23;98591.78;;;9.25;92.27
71948;BME280;63257;55.082;38.772;2023-10-13T00:38:06;98581.91;;;9.16;92.01
71948;BME280;63257;55.082;38.772;2023-10-13T00:40:48;98605.78;;;9.26;91.92
71948;BME280;63257;55.082;38.772;2023-10-13T00:43:18;98593.47;;;9.13;91.78
71948;BME280;63257;55.082;38.772;2023-10-13T00:48:32;98609.50;;;9.23;91.41
71948;BME280;63257;55.082;38.772;2023-10-13T00:51:08;98611.50;;;9.20;91.60
71948;BME280;63257;55.082;38.772;2023-10-13T00:53:39;98592.88;;;9.10;91.25
71948;BME280;63257;55.082;38.772;2023-10-13T00:56:08;98611.38;;;9.21;90.78
71948;BME280;63257;55.082;38.772;2023-10-13T00:59:00;98591.72;;;9.14;90.69
71948;BME280;63257;55.082;38.772;2023-10-13T01:01:29;98604.75;;;9.15;90.55
71948;BME280;63257;55.082;38.772;2023-10-13T01:03:59;98627.81;;;9.25;90.03
71948;BME280;63257;55.082;38.772;2023-10-13T01:06:29;98610.97;;;9.27;89.31
71948;BME280;63257;55.082;38.772;2023-10-13T01:09:05;98632.03;;;9.40;89.31
71948;BME280;63257;55.082;38.772;2023-10-13T01:11:45;98632.13;;;9.39;88.88
71948;BME280;63257;55.082;38.772;2023-10-13T01:14:12;98625.50;;;9.33;88.82
71948;BME280;63257;55.082;38.772;2023-10-13T01:16:41;98635.41;;;9.29;89.36
71948;BME280;63257;55.082;38.772;2023-10-13T01:19:13;98606.75;;;9.12;89.54
71948;BME280;63257;55.082;38.772;2023-10-13T01:21:40;98632.66;;;9.18;89.97
71948;BME280;63257;55.082;38.772;2023-10-13T01:24:14;98634.66;;;9.14;90.10
71948;BME280;63257;55.082;38.772;2023-10-13T01:26:40;98616.63;;;8.95;90.45
71948;BME280;63257;55.082;38.772;2023-10-13T01:29:08;98628.75;;;8.98;91.20
71948;BME280;63257;55.082;38.772;2023-10-13T01:31:42;98639.81;;;9.03;90.94
71948;BME280;63257;55.082;38.772;2023-10-13T01:34:18;98632.31;;;8.97;91.13
71948;BME280;63257;55.082;38.772;2023-10-13T01:36:52;98642.00;;;8.96;91.07
71948;BME280;63257;55.082;38.772;2023-10-13T01:39:19;98647.06;;;8.99;91.17
71948;BME280;63257;55.082;38.772;2023-10-13T01:41:47;98663.59;;;9.02;91.09
71948;BME280;63257;55.082;38.772;2023-10-13T01:44:19;98636.53;;;8.99;90.53
71948;BME280;63257;55.082;38.772;2023-10-13T01:46:45;98665.94;;;9.19;89.57
71948;BME280;63257;55.082;38.772;2023-10-13T01:49:16;98655.41;;;9.19;89.14
71948;BME280;63257;55.082;38.772;2023-10-13T01:51:42;98654.66;;;9.17;89.29
71948;BME280;63257;55.082;38.772;2023-10-13T01:54:08;98659.22;;;9.15;89.33
71948;BME280;63257;55.082;38.772;2023-10-13T01:56:39;98660.25;;;9.12;89.20
71948;BME280;63257;55.082;38.772;2023-10-13T01:59:11;98624.63;;;8.81;89.34
71948;BME280;63257;55.082;38.772;2023-10-13T02:01:38;98669.19;;;9.10;88.96
71948;BME280;63257;55.082;38.772;2023-10-13T02:04:05;98698.59;;;9.16;88.36
71948;BME280;63257;55.082;38.772;2023-10-13T02:06:34;98672.69;;;9.23;87.79
71948;BME280;63257;55.082;38.772;2023-10-13T02:09:03;98677.84;;;9.25;87.75
71948;BME280;63257;55.082;38.772;2023-10-13T02:11:39;98696.69;;;9.19;87.49
71948;BME280;63257;55.082;38.772;2023-10-13T02:14:06;98679.28;;;9.16;87.11
71948;BME280;63257;55.082;38.772;2023-10-13T02:16:32;98649.28;;;9.06;87.62
71948;BME280;63257;55.082;38.772;2023-10-13T02:18:58;98675.63;;;9.19;86.21
71948;BME280;63257;55.082;38.772;2023-10-13T02:21:33;98673.84;;;9.19;86.71
71948;BME280;63257;55.082;38.772;2023-10-13T02:24:08;98672.88;;;9.07;86.27
71948;BME280;63257;55.082;38.772;2023-10-13T02:26:44;98675.31;;;9.23;85.79
71948;BME280;63257;55.082;38.772;2023-10-13T02:29:11;98685.22;;;9.32;85.26
71948;BME280;63257;55.082;38.772;2023-10-13T02:31:40;98664.69;;;9.25;84.65
71948;BME280;63257;55.082;38.772;2023-10-13T02:34:07;98674.25;;;9.26;84.92
71948;BME280;63257;55.082;38.772;2023-10-13T02:36:37;98673.94;;;9.17;85.20
71948;BME280;63257;55.082;38.772;2023-10-13T02:39:04;98673.31;;;9.14;85.27
71948;BME280;63257;55.082;38.772;2023-10-13T02:41:34;98669.09;;;8.98;85.01
71948;BME280;63257;55.082;38.772;2023-10-13T02:44:05;98671.94;;;9.08;84.72
71948;BME280;63257;55.082;38.772;2023-10-13T02:46:36;98669.09;;;9.11;84.32
71948;BME280;63257;55.082;38.772;2023-10-13T02:49:05;98688.69;;;9.33;83.30
71948;BME280;63257;55.082;38.772;2023-10-13T02:51:38;98693.44;;;9.41;82.50
71948;BME280;63257;55.082;38.772;2023-10-13T02:54:09;98672.03;;;9.32;82.38
71948;BME280;63257;55.082;38.772;2023-10-13T02:56:37;98691.31;;;9.46;81.12
71948;BME280;63257;55.082;38.772;2023-10-13T02:59:02;98700.16;;;9.45;81.21
71948;BME280;63257;55.082;38.772;2023-10-13T03:01:32;98686.19;;;9.31;81.40
71948;BME280;63257;55.082;38.772;2023-10-13T03:04:01;98712.28;;;9.34;80.76
71948;BME280;63257;55.082;38.772;2023-10-13T03:06:27;98740.63;;;9.31;80.58
71948;BME280;63257;55.082;38.772;2023-10-13T03:09:02;98713.13;;;9.35;80.47
71948;BME280;63257;55.082;38.772;2023-10-13T03:11:46;98707.03;;;9.34;79.89
71948;BME280;63257;55.082;38.772;2023-10-13T03:14:17;98716.09;;;9.30;80.18
71948;BME280;63257;55.082;38.772;2023-10-13T03:16:57;98713.66;;;9.27;80.17
71948;BME280;63257;55.082;38.772;2023-10-13T03:19:35;98732.16;;;9.13;80.10
71948;BME280;63257;55.082;38.772;2023-10-13T03:22:08;98711.53;;;9.07;79.66
71948;BME280;63257;55.082;38.772;2023-10-13T03:24:38;98735.00;;;9.10;80.15
71948;BME280;63257;55.082;38.772;2023-10-13T03:27:14;98704.53;;;8.93;80.05
71948;BME280;63257;55.082;38.772;2023-10-13T03:29:45;98731.50;;;8.96;80.50
71948;BME280;63257;55.082;38.772;2023-10-13T03:32:20;98714.81;;;8.83;80.47
71948;BME280;63257;55.082;38.772;2023-10-13T03:34:47;98707.25;;;8.78;81.51
71948;BME280;63257;55.082;38.772;2023-10-13T03:37:35;98725.44;;;8.81;80.80
71948;BME280;63257;55.082;38.772;2023-10-13T03:40:03;98726.59;;;8.77;81.50
71948;BME280;63257;55.082;38.772;2023-10-13T03:42:32;98735.94;;;8.69;81.82
71948;BME280;63257;55.082;38.772;2023-10-13T03:44:58;98727.91;;;8.57;81.19
71948;BME280;63257;55.082;38.772;2023-10-13T03:47:24;98739.81;;;8.63;81.84
71948;BME280;63257;55.082;38.772;2023-10-13T03:49:53;98728.72;;;8.58;81.42
71948;BME280;63257;55.082;38.772;2023-10-13T03:52:39;98746.91;;;8.75;80.99
71948;BME280;63257;55.082;38.772;2023-10-13T03:55:06;98740.41;;;8.81;80.42
71948;BME280;63257;55.082;38.772;2023-10-13T03:57:33;98752.69;;;8.80;80.03
71948;BME280;63257;55.082;38.772;2023-10-13T04:00:04;98767.50;;;8.96;79.98
71948;BME280;63257;55.082;38.772;2023-10-13T04:02:47;98762.84;;;8.87;79.62
71948;BME280;63257;55.082;38.772;2023-10-13T04:05:34;98767.28;;;8.99;79.36
71948;BME280;63257;55.082;38.772;2023-10-13T04:08:06;98773.59;;;8.96;79.34
71948;BME280;63257;55.082;38.772;2023-10-13T04:10:53;98768.09;;;8.87;79.40
71948;BME280;63257;55.082;38.772;2023-10-13T04:13:19;98780.66;;;8.96;79.72
71948;BME280;63257;55.082;38.772;2023-10-13T04:16:04;98754.59;;;8.78;79.82
71948;BME280;63257;55.082;38.772;2023-10-13T04:18:51;98784.78;;;8.73;79.76
71948;BME280;63257;55.082;38.772;2023-10-13T04:21:21;98780.75;;;8.67;80.20
71948;BME280;63257;55.082;38.772;2023-10-13T04:24:09;98802.84;;;8.64;80.34
71948;BME280;63257;55.082;38.772;2023-10-13T04:26:53;98797.00;;;8.59;80.74
71948;BME280;63257;55.082;38.772;2023-10-13T04:29:40;98798.97;;;8.56;80.87
71948;BME280;63257;55.082;38.772;2023-10-13T04:32:18;98803.41;;;8.55;80.75
71948;BME280;63257;55.082;38.772;2023-10-13T04:35:05;98799.19;;;8.53;81.18
71948;BME280;63257;55.082;38.772;2023-10-13T04:37:40;98795.06;;;8.48;81.35
71948;BME280;63257;55.082;38.772;2023-10-13T04:40:27;98802.84;;;8.36;81.61
71948;BME280;63257;55.082;38.772;2023-10-13T04:43:01;98820.75;;;8.43;81.34
71948;BME280;63257;55.082;38.772;2023-10-13T04:45:42;98810.22;;;8.45;81.54
71948;BME280;63257;55.082;38.772;2023-10-13T04:48:19;98814.66;;;8.43;81.87
71948;BME280;63257;55.082;38.772;2023-10-13T04:50:47;98823.78;;;8.37;81.55
71948;BME280;63257;55.082;38.772;2023-10-13T04:53:17;98818.63;;;8.36;81.58
71948;BME280;63257;55.082;38.772;2023-10-13T04:55:57;98860.16;;;8.45;81.74
71948;BME280;63257;55.082;38.772;2023-10-13T04:58:30;98843.50;;;8.44;81.80
71948;BME280;63257;55.082;38.772;2023-10-13T05:01:04;98855.81;;;8.44;81.71
71948;BME280;63257;55.082;38.772;2023-10-13T05:03:49;98848.75;;;8.44;81.91
71948;BME280;63257;55.082;38.772;2023-10-13T05:06:34;98862.81;;;8.45;81.64
71948;BME280;63257;55.082;38.772;2023-10-13T05:09:12;98855.13;;;8.40;81.54
71948;BME280;63257;55.082;38.772;2023-10-13T05:11:58;98876.47;;;8.50;81.85
71948;BME280;63257;55.082;38.772;2023-10-13T05:14:43;98885.13;;;8.52;81.26
71948;BME280;63257;55.082;38.772;2023-10-13T05:17:31;98884.84;;;8.57;81.62
71948;BME280;63257;55.082;38.772;2023-10-13T05:20:16;98890.97;;;8.57;81.26
71948;BME280;63257;55.082;38.772;2023-10-13T05:23:00;98888.78;;;8.64;81.00
71948;BME280;63257;55.082;38.772;2023-10-13T05:25:44;98902.69;;;8.66;80.78
71948;BME280;63257;55.082;38.772;2023-10-13T05:28:29;98888.88;;;8.62;80.07
71948;BME280;63257;55.082;38.772;2023-10-13T05:31:13;98884.75;;;8.73;80.05
71948;BME280;63257;55.082;38.772;2023-10-13T05:33:58;98899.19;;;8.80;79.39
71948;BME280;63257;55.082;38.772;2023-10-13T05:36:42;98905.03;;;8.85;78.62
71948;BME280;63257;55.082;38.772;2023-10-13T05:39:26;98911.78;;;8.89;78.35
71948;BME280;63257;55.082;38.772;2023-10-13T05:42:11;98904.47;;;8.94;78.36
71948;BME280;63257;55.082;38.772;2023-10-13T05:44:55;98912.97;;;8.98;77.79
71948;BME280;63257;55.082;38.772;2023-10-13T05:47:39;98934.69;;;9.02;77.49
71948;BME280;63257;55.082;38.772;2023-10-13T05:50:09;98925.56;;;9.07;77.23
71948;BME280;63257;55.082;38.772;2023-10-13T05:52:48;98925.00;;;9.16;77.19
71948;BME280;63257;55.082;38.772;2023-10-13T05:55:28;98924.31;;;9.13;77.08
71948;BME280;63257;55.082;38.772;2023-10-13T05:58:13;98927.31;;;9.21;76.22
71948;BME280;63257;55.082;38.772;2023-10-13T06:00:58;98910.78;;;9.19;75.69
71948;BME280;63257;55.082;38.772;2023-10-13T06:03:42;98927.91;;;9.39;75.44
71948;BME280;63257;55.082;38.772;2023-10-13T06:06:27;98955.81;;;9.56;74.68
71948;BME280;63257;55.082;38.772;2023-10-13T06:09:11;98941.19;;;9.65;73.39
71948;BME280;63257;55.082;38.772;2023-10-13T06:11:55;98964.06;;;9.64;72.96
71948;BME280;63257;55.082;38.772;2023-10-13T06:14:40;98958.28;;;9.72;73.05
71948;BME280;63257;55.082;38.772;2023-10-13T06:17:25;98936.25;;;9.73;72.55
71948;BME280;63257;55.082;38.772;2023-10-13T06:20:09;98975.66;;;10.02;71.07
71948;BME280;63257;55.082;38.772;2023-10-13T06:22:54;98977.72;;;9.84;71.23
71948;BME280;63257;55.082;38.772;2023-10-13T06:25:38;98941.63;;;9.72;71.37
71948;BME280;63257;55.082;38.772;2023-10-13T06:28:22;98971.22;;;10.02;70.95
71948;BME280;63257;55.082;38.772;2023-10-13T06:31:08;98977.59;;;10.13;70.41
71948;BME280;63257;55.082;38.772;2023-10-13T06:33:34;98980.75;;;10.18;70.60
71948;BME280;63257;55.082;38.772;2023-10-13T06:36:04;98981.72;;;10.17;69.66
71948;BME280;63257;55.082;38.772;2023-10-13T06:38:36;98986.03;;;10.18;69.85
71948;BME280;63257;55.082;38.772;2023-10-13T06:41:03;98997.19;;;10.09;70.16
71948;BME280;63257;55.082;38.772;2023-10-13T06:43:35;98978.03;;;10.19;70.20
71948;BME280;63257;55.082;38.772;2023-10-13T06:46:10;98964.63;;;10.23;69.85
71948;BME280;63257;55.082;38.772;2023-10-13T06:48:42;98995.91;;;10.42;69.68
71948;BME280;63257;55.082;38.772;2023-10-13T06:51:09;98999.69;;;10.50;68.36
71948;BME280;63257;55.082;38.772;2023-10-13T06:53:45;98978.19;;;10.57;68.32
71948;BME280;63257;55.082;38.772;2023-10-13T06:56:16;99011.34;;;10.61;68.11
71948;BME280;63257;55.082;38.772;2023-10-13T06:58:53;98990.41;;;10.45;68.60
71948;BME280;63257;55.082;38.772;2023-10-13T07:01:28;98998.66;;;10.40;68.06
71948;BME280;63257;55.082;38.772;2023-10-13T07:03:54;99033.88;;;10.39;67.92
71948;BME280;63257;55.082;38.772;2023-10-13T07:06:21;99007.06;;;10.45;67.93
71948;BME280;63257;55.082;38.772;2023-10-13T07:08:50;99012.06;;;10.50;67.62
71948;BME280;63257;55.082;38.772;2023-10-13T07:11:24;99033.50;;;10.58;67.23
71948;BME280;63257;55.082;38.772;2023-10-13T07:14:03;99027.16;;;10.61;66.43
71948;BME280;63257;55.082;38.772;2023-10-13T07:16:43;99015.56;;;10.63;66.96
71948;BME280;63257;55.082;38.772;2023-10-13T07:19:13;99015.75;;;10.60;66.91
71948;BME280;63257;55.082;38.772;2023-10-13T07:21:45;99002.38;;;10.63;66.08
71948;BME280;63257;55.082;38.772;2023-10-13T07:24:12;99034.25;;;10.86;64.70
71948;BME280;63257;55.082;38.772;2023-10-13T07:26:39;99026.09;;;10.89;65.10
71948;BME280;63257;55.082;38.772;2023-10-13T07:29:12;99048.81;;;11.05;64.74
71948;BME280;63257;55.082;38.772;2023-10-13T07:31:38;99045.41;;;11.15;63.88
71948;BME280;63257;55.082;38.772;2023-10-13T07:34:06;99039.28;;;11.15;63.67
71948;BME280;63257;55.082;38.772;2023-10-13T07:36:40;99027.25;;;11.11;63.90
71948;BME280;63257;55.082;38.772;2023-10-13T07:39:09;99034.59;;;11.31;62.98
71948;BME280;63257;55.082;38.772;2023-10-13T07:41:51;99039.16;;;11.29;62.74
71948;BME280;63257;55.082;38.772;2023-10-13T07:44:30;99057.06;;;11.13;61.98
71948;BME280;63257;55.082;38.772;2023-10-13T07:47:03;99059.03;;;11.09;62.72
71948;BME280;63257;55.082;38.772;2023-10-13T07:49:36;99070.78;;;11.05;62.50
71948;BME280;63257;55.082;38.772;2023-10-13T07:52:06;99072.59;;;11.05;61.89
71948;BME280;63257;55.082;38.772;2023-10-13T07:54:43;99075.63;;;11.11;61.01
71948;BME280;63257;55.082;38.772;2023-10-13T07:57:09;99054.72;;;11.08;60.83
71948;BME280;63257;55.082;38.772;2023-10-13T07:59:34;99065.16;;;11.23;60.40
71948;BME280;63257;55.082;38.772;2023-10-13T08:02:00;99085.56;;;11.33;60.22
71948;BME280;63257;55.082;38.772;2023-10-13T08:04:38;99101.72;;;11.29;60.22
71948;BME280;63257;55.082;38.772;2023-10-13T08:07:03;99082.28;;;11.30;59.97
71948;BME280;63257;55.082;38.772;2023-10-13T08:09:40;99103.41;;;11.30;60.52
71948;BME280;63257;55.082;38.772;2023-10-13T08:12:07;99105.84;;;11.20;60.50
71948;BME280;63257;55.082;38.772;2023-10-13T08:14:38;99098.31;;;11.40;60.35
71948;BME280;63257;55.082;38.772;2023-10-13T08:17:08;99085.94;;;11.40;59.37
71948;BME280;63257;55.082;38.772;2023-10-13T08:19:39;99103.50;;;11.54;57.87
71948;BME280;63257;55.082;38.772;2023-10-13T08:22:11;99099.88;;;11.68;57.11
71948;BME280;63257;55.082;38.772;2023-10-13T08:24:45;99105.56;;;11.62;57.15
71948;BME280;63257;55.082;38.772;2023-10-13T08:27:11;99109.16;;;11.74;57.24
71948;BME280;63257;55.082;38.772;2023-10-13T08:29:49;99099.13;;;11.66;57.38
71948;BME280;63257;55.082;38.772;2023-10-13T08:32:26;99120.13;;;11.80;56.47
71948;BME280;63257;55.082;38.772;2023-10-13T08:34:53;99139.41;;;11.69;56.15
71948;BME280;63257;55.082;38.772;2023-10-13T08:37:20;99146.31;;;11.46;55.33
71948;BME280;63257;55.082;38.772;2023-10-13T08:39:50;99159.19;;;11.51;56.54
71948;BME280;63257;55.082;38.772;2023-10-13T08:42:36;99126.00;;;11.60;57.11
71948;BME280;63257;55.082;38.772;2023-10-13T08:45:12;99144.91;;;11.53;56.63
71948;BME280;63257;55.082;38.772;2023-10-13T08:48:00;99143.75;;;11.70;56.17
71948;BME280;63257;55.082;38.772;2023-10-13T08:50:50;99153.22;;;11.86;55.61
71948;BME280;63257;55.082;38.772;2023-10-13T08:53:21;99131.03;;;11.76;55.15
71948;BME280;63257;55.082;38.772;2023-10-13T08:55:56;99165.50;;;11.74;55.38
71948;BME280;63257;55.082;38.772;2023-10-13T08:58:48;99146.28;;;11.59;55.71
71948;BME280;63257;55.082;38.772;2023-10-13T09:01:25;99165.19;;;11.66;54.49
71948;BME280;63257;55.082;38.772;2023-10-13T09:04:07;99155.03;;;11.73;52.53
71948;BME280;63257;55.082;38.772;2023-10-13T09:07:10;99174.50;;;11.84;52.90
71948;BME280;63257;55.082;38.772;2023-10-13T09:12:23;99182.34;;;11.47;52.93
71948;BME280;63257;55.082;38.772;2023-10-13T09:15:12;99174.63;;;11.44;53.27
71948;BME280;63257;55.082;38.772;2023-10-13T09:17:45;99184.88;;;11.49;52.61
71948;BME280;63257;55.082;38.772;2023-10-13T09:20:31;99173.56;;;11.34;53.10
71948;BME280;63257;55.082;38.772;2023-10-13T09:23:10;99204.22;;;11.49;52.88
71948;BME280;63257;55.082;38.772;2023-10-13T09:25:40;99200.28;;;11.55;53.64
71948;BME280;63257;55.082;38.772;2023-10-13T09:28:34;99181.88;;;11.79;53.21
71948;BME280;63257;55.082;38.772;2023-10-13T09:31:03;99200.81;;;11.99;53.53
71948;BME280;63257;55.082;38.772;2023-10-13T09:33:33;99202.75;;;11.97;53.36
71948;BME280;63257;55.082;38.772;2023-10-13T09:36:04;99191.06;;;12.12;53.15
71948;BME280;63257;55.082;38.772;2023-10-13T09:38:33;99224.84;;;12.33;53.78
71948;BME280;63257;55.082;38.772;2023-10-13T09:40:59;99210.28;;;12.27;51.83
71948;BME280;63257;55.082;38.772;2023-10-13T09:43:35;99216.00;;;12.21;51.89
71948;BME280;63257;55.082;38.772;2023-10-13T09:46:04;99209.94;;;12.32;51.09
71948;BME280;63257;55.082;38.772;2023-10-13T09:48:39;99215.78;;;12.24;50.54
71948;BME280;63257;55.082;38.772;2023-10-13T09:51:13;99215.91;;;12.10;51.09
71948;BME280;63257;55.082;38.772;2023-10-13T09:53:41;99196.75;;;12.06;50.46
71948;BME280;63257;55.082;38.772;2023-10-13T09:56:18;99226.47;;;12.22;50.11
71948;BME280;63257;55.082;38.772;2023-10-13T09:58:53;99245.28;;;12.31;48.52
71948;BME280;63257;55.082;38.772;2023-10-13T10:01:28;99244.03;;;12.36;49.29
71948;BME280;63257;55.082;38.772;2023-10-13T10:04:10;99221.50;;;12.55;49.05
71948;BME280;63257;55.082;38.772;2023-10-13T10:06:57;99236.44;;;12.56;47.50
71948;BME280;63257;55.082;38.772;2023-10-13T10:15:27;99231.53;;;12.63;47.98
71948;BME280;63257;55.082;38.772;2023-10-13T10:18:00;99242.25;;;12.61;46.81
71948;BME280;63257;55.082;38.772;2023-10-13T10:20:32;99255.56;;;12.84;46.58
71948;BME280;63257;55.082;38.772;2023-10-13T10:23:26;99278.13;;;13.14;46.86
71948;BME280;63257;55.082;38.772;2023-10-13T10:25:54;99243.25;;;12.96;46.31
71948;BME280;63257;55.082;38.772;2023-10-13T10:28:38;99277.88;;;13.17;46.30
71948;BME280;63257;55.082;38.772;2023-10-13T10:31:08;99225.19;;;13.01;45.66
71948;BME280;63257;55.082;38.772;2023-10-13T10:33:39;99245.16;;;12.94;45.61
71948;BME280;63257;55.082;38.772;2023-10-13T10:36:05;99270.94;;;12.79;45.80
71948;BME280;63257;55.082;38.772;2023-10-13T10:38:31;99263.19;;;12.64;46.00
71948;BME280;63257;55.082;38.772;2023-10-13T10:41:01;99269.91;;;13.17;45.48
71948;BME280;63257;55.082;38.772;2023-10-13T10:43:30;99273.03;;;13.46;45.28
71948;BME280;63257;55.082;38.772;2023-10-13T10:46:28;99261.97;;;13.41;45.10
71948;BME280;63257;55.082;38.772;2023-10-13T10:49:04;99280.44;;;13.30;45.15
71948;BME280;63257;55.082;38.772;2023-10-13T10:51:40;99273.94;;;13.34;44.56
71948;BME280;63257;55.082;38.772;2023-10-13T10:54:20;99291.63;;;13.22;44.57
71948;BME280;63257;55.082;38.772;2023-10-13T10:56:46;99299.00;;;13.30;44.39
71948;BME280;63257;55.082;38.772;2023-10-13T10:59:19;99288.34;;;13.43;44.11
71948;BME280;63257;55.082;38.772;2023-10-13T11:01:46;99367.25;;;13.39;44.06
71948;BME280;63257;55.082;38.772;2023-10-13T11:04:14;99315.91;;;13.16;44.37
71948;BME280;63257;55.082;38.772;2023-10-13T11:06:48;99311.91;;;13.34;44.30
71948;BME280;63257;55.082;38.772;2023-10-13T11:09:15;99341.81;;;13.36;43.78
71948;BME280;63257;55.082;38.772;2023-10-13T11:11:47;99348.47;;;13.18;43.26
71948;BME280;63257;55.082;38.772;2023-10-13T11:14:27;99318.53;;;13.04;43.64
71948;BME280;63257;55.082;38.772;2023-10-13T11:16:55;99320.31;;;13.28;43.89
71948;BME280;63257;55.082;38.772;2023-10-13T11:19:22;99301.09;;;13.37;44.58
71948;BME280;63257;55.082;38.772;2023-10-13T11:22:16;99328.59;;;13.23;44.44
71948;BME280;63257;55.082;38.772;2023-10-13T11:24:56;99311.72;;;12.89;45.42
71948;BME280;63257;55.082;38.772;2023-10-13T11:27:29;99328.59;;;12.99;45.72
71948;BME280;63257;55.082;38.772;2023-10-13T11:30:12;99353.75;;;12.94;45.46
71948;BME280;63257;55.082;38.772;2023-10-13T11:32:43;99346.44;;;12.60;46.52
71948;BME280;63257;55.082;38.772;2023-10-13T11:35:10;99350.81;;;12.85;46.70
71948;BME280;63257;55.082;38.772;2023-10-13T11:37:54;99343.03;;;12.95;46.40
71948;BME280;63257;55.082;38.772;2023-10-13T11:40:43;99344.13;;;13.77;44.24
71948;BME280;63257;55.082;38.772;2023-10-13T11:43:10;99341.63;;;13.86;44.62
71948;BME280;63257;55.082;38.772;2023-10-13T11:45:40;99329.41;;;13.72;44.71
71948;BME280;63257;55.082;38.772;2023-10-13T11:48:21;99358.81;;;13.69;43.28
71948;BME280;63257;55.082;38.772;2023-10-13T11:51:02;99358.72;;;13.82;43.07
71948;BME280;63257;55.082;38.772;2023-10-13T11:53:35;99356.41;;;13.42;44.16
71948;BME280;63257;55.082;38.772;2023-10-13T11:56:02;99362.28;;;13.34;43.36
71948;BME280;63257;55.082;38.772;2023-10-13T11:58:37;99354.50;;;12.96;44.92
71948;BME280;63257;55.082;38.772;2023-10-13T12:01:03;99392.75;;;12.92;44.54
71948;BME280;63257;55.082;38.772;2023-10-13T12:03:42;99375.97;;;12.67;45.47
71948;BME280;63257;55.082;38.772;2023-10-13T12:06:27;99388.03;;;12.58;45.32
71948;BME280;63257;55.082;38.772;2023-10-13T12:09:04;99358.09;;;12.58;45.58
71948;BME280;63257;55.082;38.772;2023-10-13T12:11:40;99374.97;;;13.18;43.91
71948;BME280;63257;55.082;38.772;2023-10-13T12:14:08;99366.81;;;13.32;43.70
71948;BME280;63257;55.082;38.772;2023-10-13T12:16:47;99373.19;;;13.78;42.87
71948;BME280;63257;55.082;38.772;2023-10-13T12:19:21;99364.25;;;13.79;42.76
71948;BME280;63257;55.082;38.772;2023-10-13T12:21:50;99380.63;;;14.31;42.26
71948;BME280;63257;55.082;38.772;2023-10-13T12:24:20;99381.38;;;14.33;42.02
71948;BME280;63257;55.082;38.772;2023-10-13T12:27:05;99391.38;;;14.52;41.55
71948;BME280;63257;55.082;38.772;2023-10-13T12:30:08;99384.97;;;14.89;40.87
71948;BME280;63257;55.082;38.772;2023-10-13T12:32:39;99389.94;;;14.82;40.64
71948;BME280;63257;55.082;38.772;2023-10-13T12:35:10;99410.13;;;14.96;39.75
71948;BME280;63257;55.082;38.772;2023-10-13T12:37:36;99385.38;;;14.73;39.92
71948;BME280;63257;55.082;38.772;2023-10-13T12:40:03;99391.88;;;14.91;39.88
71948;BME280;63257;55.082;38.772;2023-10-13T12:42:48;99405.03;;;14.93;39.12
71948;BME280;63257;55.082;38.772;2023-10-13T12:45:32;99394.16;;;14.85;39.37
71948;BME280;63257;55.082;38.772;2023-10-13T12:48:16;99385.09;;;14.87;38.88
71948;BME280;63257;55.082;38.772;2023-10-13T12:51:01;99393.94;;;14.88;38.93
71948;BME280;63257;55.082;38.772;2023-10-13T12:53:49;99387.88;;;15.08;38.78
71948;BME280;63257;55.082;38.772;2023-10-13T12:56:16;99385.75;;;15.23;38.95
71948;BME280;63257;55.082;38.772;2023-10-13T12:58:42;99397.06;;;15.04;39.42
71948;BME280;63257;55.082;38.772;2023-10-13T13:01:21;99393.06;;;15.10;38.87
71948;BME280;63257;55.082;38.772;2023-10-13T13:03:48;99388.78;;;15.19;38.78
71948;BME280;63257;55.082;38.772;2023-10-13T13:06:25;99387.25;;;15.05;38.15
71948;BME280;63257;55.082;38.772;2023-10-13T13:08:55;99384.84;;;15.02;38.56
71948;BME280;63257;55.082;38.772;2023-10-13T13:11:21;99376.22;;;15.21;38.02
71948;BME280;63257;55.082;38.772;2023-10-13T13:13:48;99406.06;;;15.24;37.92
71948;BME280;63257;55.082;38.772;2023-10-13T13:16:14;99406.09;;;15.13;38.32
71948;BME280;63257;55.082;38.772;2023-10-13T13:18:40;99408.81;;;15.34;38.00
71948;BME280;63257;55.082;38.772;2023-10-13T13:21:08;99415.63;;;15.16;38.00
71948;BME280;63257;55.082;38.772;2023-10-13T13:24:00;99415.63;;;15.16;38.46
71948;BME280;63257;55.082;38.772;2023-10-13T13:26:29;99402.56;;;15.24;38.59
71948;BME280;63257;55.082;38.772;2023-10-13T13:28:56;99420.16;;;15.36;38.32
71948;BME280;63257;55.082;38.772;2023-10-13T13:31:23;99410.41;;;15.25;38.39
71948;BME280;63257;55.082;38.772;2023-10-13T13:33:55;99419.50;;;15.12;38.43
71948;BME280;63257;55.082;38.772;2023-10-13T13:36:21;99417.59;;;14.91;38.67
71948;BME280;63257;55.082;38.772;2023-10-13T13:38:48;99423.16;;;14.99;38.95
71948;BME280;63257;55.082;38.772;2023-10-13T13:41:17;99436.75;;;15.17;38.28
71948;BME280;63257;55.082;38.772;2023-10-13T13:43:44;99427.03;;;14.95;38.47
71948;BME280;63257;55.082;38.772;2023-10-13T13:46:21;99440.31;;;14.84;39.10